Time;durP1;ratioP1;P1;durP2;ratioP2;P2;SDS_P1;SDS_P2;PMS_P1;PMS_P2;Temp;Humidity;BMP_temperature;BMP_pressure;BME280_temperature;BME280_humidity;BME280_pressure;Samples;Min_cycle;Max_cycle;Signal;HPM_P1;HPM_P2
2023/05/10 00:01:23;;;;;;;3.15;1.70;;;;;;;;;;5081467;28;20457;-84
2023/05/10 00:03:56;;;;;;;3.78;1.90;;;;;;;;;;5082247;28;20446;-83
2023/05/10 00:06:24;;;;;;;4.28;2.60;;;;;;;;;;5080398;28;20020;-81
2023/05/10 00:09:06;;;;;;;5.28;2.58;;;;;;;;;;5073702;28;20035;-85
2023/05/10 00:11:31;;;;;;;3.65;2.25;;;;;;;;;;5073381;28;20036;-83
2023/05/10 00:13:59;;;;;;;3.40;1.98;;;;;;;;;;5076309;28;20067;-82
2023/05/10 00:16:36;;;;;;;3.65;2.40;;;;;;;;;;5091089;28;20080;-81
2023/05/10 00:19:31;;;;;;;3.95;2.40;;;;;;;;;;5084776;28;20021;-83
2023/05/10 00:22:00;;;;;;;3.60;2.00;;;;;;;;;;5079945;28;20024;-84
2023/05/10 00:24:30;;;;;;;4.22;2.47;;;;;;;;;;5081447;28;20434;-84
2023/05/10 00:26:55;;;;;;;;;;;;;;;;;;5075461;28;20082;-84
2023/05/10 00:29:21;;;;;;;3.53;2.25;;;;;;;;;;5076876;28;19916;-82
2023/05/10 00:31:46;;;;;;;3.90;2.47;;;;;;;;;;5077450;28;20050;-84
2023/05/10 00:34:12;;;;;;;2.90;2.25;;;;;;;;;;5081181;28;20020;-82
2023/05/10 00:36:43;;;;;;;3.78;2.13;;;;;;;;;;5075082;28;20044;-85
2023/05/10 00:39:08;;;;;;;3.95;2.20;;;;;;;;;;5078938;28;20089;-84
2023/05/10 00:41:34;;;;;;;2.60;1.70;;;;;;;;;;5080913;28;20119;-82
2023/05/10 00:44:00;;;;;;;2.65;1.85;;;;;;;;;;5080198;28;20101;-84
2023/05/10 00:46:26;;;;;;;3.10;2.17;;;;;;;;;;5082872;28;20032;-82
2023/05/10 00:48:52;;;;;;;5.07;2.22;;;;;;;;;;5072246;28;20052;-82
2023/05/10 00:51:25;;;;;;;4.63;2.63;;;;;;;;;;5079972;28;20067;-82
2023/05/10 00:53:51;;;;;;;3.17;2.08;;;;;;;;;;5082351;28;20109;-82
2023/05/10 00:56:17;;;;;;;4.05;2.40;;;;;;;;;;5082723;28;20059;-85
2023/05/10 00:58:45;;;;;;;3.67;2.35;;;;;;;;;;5085776;28;20495;-83
2023/05/10 01:01:12;;;;;;;2.80;1.90;;;;;;;;;;5074130;28;20028;-84
2023/05/10 01:03:46;;;;;;;4.25;2.13;;;;;;;;;;5076016;28;20522;-85
2023/05/10 01:06:12;;;;;;;2.90;1.80;;;;;;;;;;5080180;28;20034;-83
2023/05/10 01:08:39;;;;;;;5.85;3.20;;;;;;;;;;5076992;28;20432;-82
2023/05/10 01:11:04;;;;;;;3.95;2.05;;;;;;;;;;5076759;28;20028;-83
2023/05/10 01:13:37;;;;;;;3.70;2.17;;;;;;;;;;5078527;28;20426;-81
2023/05/10 01:16:08;;;;;;;4.75;2.35;;;;;;;;;;5076910;28;20028;-85
2023/05/10 01:18:37;;;;;;;3.30;1.90;;;;;;;;;;5084090;28;20029;-82
2023/05/10 01:21:38;;;;;;;3.42;2.05;;;;;;;;;;5086844;28;20030;-84
2023/05/10 01:24:33;;;;;;;3.17;1.90;;;;;;;;;;5081628;28;20414;-81
2023/05/10 01:27:09;;;;;;;2.85;2.05;;;;;;;;;;5071224;28;20020;-84
2023/05/10 01:30:05;;;;;;;3.38;2.22;;;;;;;;;;5079305;28;20376;-83
2023/05/10 01:32:42;;;;;;;3.17;1.92;;;;;;;;;;5073756;28;20391;-83
2023/05/10 01:35:27;;;;;;;3.20;1.75;;;;;;;;;;5073180;28;20028;-84
2023/05/10 01:38:06;;;;;;;4.60;2.45;;;;;;;;;;5076781;28;20063;-84
2023/05/10 01:40:31;;;;;;;2.53;1.67;;;;;;;;;;5070801;28;20056;-85
2023/05/10 01:43:07;;;;;;;2.50;1.50;;;;;;;;;;5074915;28;20096;-84
2023/05/10 01:46:04;;;;;;;2.88;1.60;;;;;;;;;;5075313;28;20030;-84
2023/05/10 01:48:51;;;;;;;3.20;1.88;;;;;;;;;;5066990;28;20038;-83
2023/05/10 01:51:21;;;;;;;2.67;1.67;;;;;;;;;;5082960;28;20619;-82
2023/05/10 01:53:48;;;;;;;3.25;1.58;;;;;;;;;;5074026;28;20448;-83
2023/05/10 01:56:27;;;;;;;3.45;2.00;;;;;;;;;;5109527;27;20032;-84
2023/05/10 01:58:54;;;;;;;1.90;1.23;;;;;;;;;;5071748;28;20040;-82
2023/05/10 02:01:27;;;;;;;3.03;1.38;;;;;;;;;;5082531;28;20119;-84
2023/05/10 02:03:54;;;;;;;2.42;1.67;;;;;;;;;;5085613;28;20024;-82
2023/05/10 02:06:40;;;;;;;3.28;1.75;;;;;;;;;;5079586;28;20039;-86
2023/05/10 02:09:10;;;;;;;2.45;1.50;;;;;;;;;;5077217;28;20024;-85
2023/05/10 02:11:59;;;;;;;2.75;1.52;;;;;;;;;;5077066;28;20024;-86
2023/05/10 02:14:39;;;;;;;1.65;1.23;;;;;;;;;;5075099;28;20064;-84
2023/05/10 02:20:46;;;;;;;1.48;0.95;;;;;;;;;;5077135;28;20085;-85
2023/05/10 02:23:54;;;;;;;2.05;1.35;;;;;;;;;;5074711;28;20203;-87
2023/05/10 02:26:31;;;;;;;1.88;1.33;;;;;;;;;;5026607;28;20064;-85
2023/05/10 02:29:31;;;;;;;2.50;1.45;;;;;;;;;;5021277;28;20036;-87
2023/05/10 02:32:00;;;;;;;2.08;1.60;;;;;;;;;;5020900;28;20040;-85
2023/05/10 02:34:27;;;;;;;1.75;1.30;;;;;;;;;;5054756;28;20036;-83
2023/05/10 02:36:54;;;;;;;1.08;0.95;;;;;;;;;;5084674;28;20060;-86
2023/05/10 02:39:21;;;;;;;1.35;1.13;;;;;;;;;;5081675;28;20025;-86
2023/05/10 02:41:48;;;;;;;1.42;1.20;;;;;;;;;;5081511;28;20364;-86
2023/05/10 02:44:24;;;;;;;1.40;1.00;;;;;;;;;;5085492;28;20028;-85
2023/05/10 02:46:50;;;;;;;1.25;0.90;;;;;;;;;;5078572;28;20032;-82
2023/05/10 02:49:16;;;;;;;1.73;1.35;;;;;;;;;;5075861;28;20024;-85
2023/05/10 02:51:51;;;;;;;1.55;0.85;;;;;;;;;;5075416;28;20031;-88
2023/05/10 02:54:27;;;;;;;1.80;1.27;;;;;;;;;;5073147;28;20020;-87
2023/05/10 02:56:57;;;;;;;2.22;1.38;;;;;;;;;;5077734;28;20024;-87
2023/05/10 02:59:23;;;;;;;1.80;1.10;;;;;;;;;;5074702;28;20025;-88
2023/05/10 03:01:48;;;;;;;2.20;1.50;;;;;;;;;;5080395;28;20945;-89
2023/05/10 03:04:13;;;;;;;2.35;1.33;;;;;;;;;;5084278;28;20043;-88
2023/05/10 03:06:40;;;;;;;1.38;1.02;;;;;;;;;;5079900;28;20035;-87
2023/05/10 03:09:07;;;;;;;2.42;1.30;;;;;;;;;;5086940;28;20036;-87
2023/05/10 03:12:03;;;;;;;1.40;0.88;;;;;;;;;;5079534;28;20024;-86
2023/05/10 03:14:51;;;;;;;1.30;0.90;;;;;;;;;;5070572;28;20021;-84
2023/05/10 03:17:19;;;;;;;2.00;1.08;;;;;;;;;;5083815;28;20479;-86
2023/05/10 03:19:57;;;;;;;1.95;1.20;;;;;;;;;;5078721;28;20021;-86
2023/05/10 03:22:36;;;;;;;1.30;1.15;;;;;;;;;;5069868;28;20048;-85
2023/05/10 03:25:05;;;;;;;1.97;1.10;;;;;;;;;;5082963;28;20077;-88
2023/05/10 03:27:32;;;;;;;4.95;1.17;;;;;;;;;;5081325;28;20760;-85
2023/05/10 03:29:58;;;;;;;1.25;0.80;;;;;;;;;;5077130;28;20089;-85
2023/05/10 03:32:23;;;;;;;3.63;1.02;;;;;;;;;;5083427;28;20481;-86
2023/05/10 03:34:49;;;;;;;2.40;1.38;;;;;;;;;;5079161;28;20112;-86
2023/05/10 03:37:14;;;;;;;2.97;1.98;;;;;;;;;;5085346;28;20090;-88
2023/05/10 03:39:39;;;;;;;3.70;1.55;;;;;;;;;;5089259;28;20020;-88
2023/05/10 03:42:05;;;;;;;3.25;2.00;;;;;;;;;;5080079;28;20046;-87
2023/05/10 03:44:32;;;;;;;2.75;1.95;;;;;;;;;;5079779;28;20404;-86
2023/05/10 03:46:58;;;;;;;4.63;2.28;;;;;;;;;;5082402;28;20032;-84
2023/05/10 03:49:23;;;;;;;2.25;1.42;;;;;;;;;;5083082;28;20074;-84
2023/05/10 03:51:49;;;;;;;2.00;1.35;;;;;;;;;;5080450;28;20031;-88
2023/05/10 03:54:14;;;;;;;2.85;2.05;;;;;;;;;;5083052;28;20028;-86
2023/05/10 03:56:40;;;;;;;3.72;2.17;;;;;;;;;;5074022;28;20035;-84
2023/05/10 03:59:07;;;;;;;4.45;2.58;;;;;;;;;;5076847;28;20031;-86
2023/05/10 04:01:33;;;;;;;3.17;2.08;;;;;;;;;;5080649;28;20040;-89
2023/05/10 04:03:59;;;;;;;3.35;2.08;;;;;;;;;;5080507;28;20028;-86
2023/05/10 04:06:24;;;;;;;6.47;2.58;;;;;;;;;;5076315;28;20028;-86
2023/05/10 04:08:50;;;;;;;4.85;3.10;;;;;;;;;;5081121;28;20049;-84
2023/05/10 04:11:15;;;;;;;3.35;2.38;;;;;;;;;;5082146;28;20020;-86
2023/05/10 04:13:41;;;;;;;3.53;2.35;;;;;;;;;;5081657;28;20020;-88
2023/05/10 04:16:06;;;;;;;3.60;2.08;;;;;;;;;;5084349;28;20024;-85
2023/05/10 04:18:31;;;;;;;2.65;2.03;;;;;;;;;;5082439;28;20089;-90
2023/05/10 04:20:57;;;;;;;3.80;2.25;;;;;;;;;;5078044;28;20020;-88
2023/05/10 04:23:34;;;;;;;2.42;1.83;;;;;;;;;;5085110;28;20104;-87
2023/05/10 04:26:01;;;;;;;3.88;2.40;;;;;;;;;;5089735;28;20035;-88
2023/05/10 04:28:27;;;;;;;4.00;2.53;;;;;;;;;;5076609;28;20035;-87
2023/05/10 04:33:58;;;;;;;4.10;2.72;;;;;;;;;;5089845;28;20111;-84
2023/05/10 04:36:23;;;;;;;4.10;2.92;;;;;;;;;;5076026;28;20113;-87
2023/05/10 04:38:54;;;;;;;5.05;2.88;;;;;;;;;;5081659;28;20480;-86
2023/05/10 04:41:24;;;;;;;3.67;2.58;;;;;;;;;;5088170;28;20408;-86
2023/05/10 04:43:50;;;;;;;4.35;2.63;;;;;;;;;;5084995;28;20021;-88
2023/05/10 04:46:15;;;;;;;4.95;2.08;;;;;;;;;;5081675;28;20046;-89
2023/05/10 04:48:41;;;;;;;3.85;2.28;;;;;;;;;;5077213;28;20027;-88
2023/05/10 04:51:12;;;;;;;3.45;2.15;;;;;;;;;;5083298;28;20038;-85
2023/05/10 04:53:37;;;;;;;4.47;2.53;;;;;;;;;;5077549;28;20024;-90
2023/05/10 04:56:03;;;;;;;3.67;2.13;;;;;;;;;;5079670;28;20077;-86
2023/05/10 04:58:28;;;;;;;2.70;2.10;;;;;;;;;;5074774;28;20091;-86
2023/05/10 05:00:54;;;;;;;3.90;2.60;;;;;;;;;;5073574;28;20056;-85
2023/05/10 05:03:19;;;;;;;5.50;2.20;;;;;;;;;;5080553;28;20031;-87
2023/05/10 05:05:44;;;;;;;3.15;2.33;;;;;;;;;;5078665;28;20024;-86
2023/05/10 05:08:10;;;;;;;4.18;2.55;;;;;;;;;;5076700;28;20028;-87
2023/05/10 05:10:35;;;;;;;4.53;2.60;;;;;;;;;;5083640;28;20093;-82
2023/05/10 05:13:00;;;;;;;3.90;2.35;;;;;;;;;;5081285;28;20074;-85
2023/05/10 05:15:26;;;;;;;2.97;2.20;;;;;;;;;;5078276;28;20040;-85
2023/05/10 05:17:51;;;;;;;2.95;1.67;;;;;;;;;;5078273;28;20492;-85
2023/05/10 05:20:18;;;;;;;2.53;1.80;;;;;;;;;;5086619;28;20074;-87
2023/05/10 05:22:44;;;;;;;3.85;2.78;;;;;;;;;;5076934;28;20024;-88
2023/05/10 05:25:10;;;;;;;3.28;2.33;;;;;;;;;;5079033;28;20029;-85
2023/05/10 05:27:35;;;;;;;3.40;2.17;;;;;;;;;;5076993;28;20024;-86
2023/05/10 05:30:02;;;;;;;3.65;2.25;;;;;;;;;;5075049;28;20020;-84
2023/05/10 05:32:27;;;;;;;3.30;2.17;;;;;;;;;;5073333;28;20030;-87
2023/05/10 05:34:53;;;;;;;3.13;2.03;;;;;;;;;;5078165;28;20032;-84
2023/05/10 05:37:21;;;;;;;4.32;2.33;;;;;;;;;;5075337;28;20487;-86
2023/05/10 05:39:47;;;;;;;3.03;2.10;;;;;;;;;;5080122;28;20024;-87
2023/05/10 05:42:13;;;;;;;3.60;2.22;;;;;;;;;;5084140;28;20031;-86
2023/05/10 05:44:39;;;;;;;3.47;2.25;;;;;;;;;;5077039;28;20020;-85
2023/05/10 05:47:04;;;;;;;5.03;2.92;;;;;;;;;;5078818;28;20040;-83
2023/05/10 05:49:30;;;;;;;4.43;2.75;;;;;;;;;;5073185;28;20093;-84
2023/05/10 05:52:02;;;;;;;2.97;2.25;;;;;;;;;;5080329;28;20024;-87
2023/05/10 05:54:28;;;;;;;3.70;2.30;;;;;;;;;;5082713;28;20055;-84
2023/05/10 05:56:57;;;;;;;3.70;2.35;;;;;;;;;;5076672;28;20052;-89
2023/05/10 05:59:23;;;;;;;4.95;2.47;;;;;;;;;;5076765;28;20038;-86
2023/05/10 06:01:48;;;;;;;3.10;2.40;;;;;;;;;;5078671;28;20387;-83
2023/05/10 06:04:14;;;;;;;5.47;2.65;;;;;;;;;;5072059;28;20029;-84
2023/05/10 06:06:40;;;;;;;5.15;2.50;;;;;;;;;;5081073;28;20067;-84
2023/05/10 06:09:05;;;;;;;9.52;3.50;;;;;;;;;;5075697;28;20157;-84
2023/05/10 06:11:32;;;;;;;5.38;2.83;;;;;;;;;;5080347;28;20393;-81
2023/05/10 06:13:58;;;;;;;5.32;3.00;;;;;;;;;;5080390;28;20024;-82
2023/05/10 06:16:23;;;;;;;4.40;2.58;;;;;;;;;;5079606;28;20028;-83
2023/05/10 06:18:49;;;;;;;8.18;3.53;;;;;;;;;;5079324;28;20031;-83
2023/05/10 06:21:15;;;;;;;4.63;3.45;;;;;;;;;;5076804;28;20032;-83
2023/05/10 06:23:41;;;;;;;4.10;2.70;;;;;;;;;;5077244;28;20115;-83
2023/05/10 06:26:06;;;;;;;4.63;2.42;;;;;;;;;;5075410;28;20115;-85
2023/05/10 06:28:33;;;;;;;4.50;3.22;;;;;;;;;;5084818;28;20032;-82
2023/05/10 06:30:59;;;;;;;6.00;3.22;;;;;;;;;;5081731;28;20039;-82
2023/05/10 06:33:24;;;;;;;6.13;2.45;;;;;;;;;;5074253;28;20020;-83
2023/05/10 06:35:49;;;;;;;6.55;2.95;;;;;;;;;;5078794;28;20089;-84
2023/05/10 06:38:15;;;;;;;5.25;2.97;;;;;;;;;;5076254;28;20028;-83
2023/05/10 06:40:43;;;;;;;5.10;2.38;;;;;;;;;;5078209;28;20052;-85
2023/05/10 06:43:09;;;;;;;5.20;2.78;;;;;;;;;;5082476;28;20042;-84
2023/05/10 06:45:35;;;;;;;6.10;3.75;;;;;;;;;;5079004;28;20028;-84
2023/05/10 06:48:01;;;;;;;4.70;2.88;;;;;;;;;;5081608;28;20070;-86
2023/05/10 06:50:26;;;;;;;5.47;2.55;;;;;;;;;;5083270;28;20495;-83
2023/05/10 06:52:52;;;;;;;6.32;3.13;;;;;;;;;;5084299;28;20819;-83
2023/05/10 06:55:17;;;;;;;5.40;3.88;;;;;;;;;;5081421;28;20036;-84
2023/05/10 06:57:42;;;;;;;4.90;3.40;;;;;;;;;;5084551;28;20036;-83
2023/05/10 07:00:09;;;;;;;6.13;3.58;;;;;;;;;;5081609;28;20038;-85
2023/05/10 07:02:35;;;;;;;5.43;2.67;;;;;;;;;;5089480;28;20333;-87
2023/05/10 07:05:00;;;;;;;5.50;3.25;;;;;;;;;;5085320;28;20031;-83
2023/05/10 07:07:26;;;;;;;3.90;2.25;;;;;;;;;;5112457;27;20036;-85
2023/05/10 07:09:51;;;;;;;5.22;2.72;;;;;;;;;;5080872;28;20017;-84
2023/05/10 07:12:17;;;;;;;5.70;2.70;;;;;;;;;;5081984;28;20111;-82
2023/05/10 07:14:42;;;;;;;5.07;2.35;;;;;;;;;;5079771;28;20059;-83
2023/05/10 07:17:08;;;;;;;3.80;2.22;;;;;;;;;;5079503;28;20165;-85
2023/05/10 07:19:33;;;;;;;4.80;2.05;;;;;;;;;;5087489;28;20023;-80
2023/05/10 07:21:59;;;;;;;6.57;3.83;;;;;;;;;;5083859;28;20036;-82
2023/05/10 07:24:25;;;;;;;8.70;3.08;;;;;;;;;;5080864;28;20055;-85
2023/05/10 07:26:50;;;;;;;4.40;2.70;;;;;;;;;;5080926;28;20082;-84
2023/05/10 07:29:15;;;;;;;5.00;3.08;;;;;;;;;;5080143;28;20024;-81
2023/05/10 07:31:42;;;;;;;4.75;3.38;;;;;;;;;;5084408;28;20024;-83
2023/05/10 07:34:08;;;;;;;5.32;3.08;;;;;;;;;;5074312;28;20029;-84
2023/05/10 07:36:34;;;;;;;9.68;2.85;;;;;;;;;;5085549;28;20123;-84
2023/05/10 07:38:59;;;;;;;4.00;2.05;;;;;;;;;;5079658;28;20103;-81
2023/05/10 07:41:25;;;;;;;5.95;3.15;;;;;;;;;;5084869;28;20032;-84
2023/05/10 07:43:50;;;;;;;5.97;3.35;;;;;;;;;;5081605;28;20377;-85
2023/05/10 07:46:16;;;;;;;7.05;3.65;;;;;;;;;;5086100;28;20032;-85
2023/05/10 07:48:43;;;;;;;5.32;2.75;;;;;;;;;;5081199;28;20020;-84
2023/05/10 07:51:09;;;;;;;6.38;2.97;;;;;;;;;;5084061;28;20024;-84
2023/05/10 07:53:35;;;;;;;5.25;3.60;;;;;;;;;;5086255;28;20089;-83
2023/05/10 07:56:32;;;;;;;8.60;4.78;;;;;;;;;;5075958;28;20060;-83
2023/05/10 07:59:03;;;;;;;9.00;2.80;;;;;;;;;;5080103;28;20105;-83
2023/05/10 08:01:33;;;;;;;5.55;2.80;;;;;;;;;;5088934;28;20383;-85
2023/05/10 08:03:59;;;;;;;4.50;2.80;;;;;;;;;;5075283;28;20103;-84
2023/05/10 08:06:26;;;;;;;5.40;3.40;;;;;;;;;;5074600;28;20039;-82
2023/05/10 08:08:53;;;;;;;11.55;3.22;;;;;;;;;;5077228;28;20078;-84
2023/05/10 08:11:21;;;;;;;5.63;3.53;;;;;;;;;;5069633;28;20029;-85
2023/05/10 08:13:48;;;;;;;4.03;2.55;;;;;;;;;;5075093;28;20487;-84
2023/05/10 08:16:14;;;;;;;4.22;2.80;;;;;;;;;;5073381;28;20380;-81
2023/05/10 08:18:40;;;;;;;6.78;4.13;;;;;;;;;;5084460;28;20032;-82
2023/05/10 08:21:05;;;;;;;11.32;3.63;;;;;;;;;;5073520;28;20028;-81
2023/05/10 08:23:31;;;;;;;10.45;3.95;;;;;;;;;;5077240;28;20494;-84
2023/05/10 08:25:56;;;;;;;6.10;4.15;;;;;;;;;;5081419;28;20035;-83
2023/05/10 08:28:22;;;;;;;5.47;2.97;;;;;;;;;;5076456;28;20107;-83
2023/05/10 08:30:47;;;;;;;4.78;3.35;;;;;;;;;;5079799;28;20024;-81
2023/05/10 08:33:13;;;;;;;5.47;3.08;;;;;;;;;;5072798;28;20082;-82
2023/05/10 08:35:38;;;;;;;6.22;3.45;;;;;;;;;;5076745;28;20024;-83
2023/05/10 08:38:04;;;;;;;5.22;3.17;;;;;;;;;;5075056;28;20031;-82
2023/05/10 08:40:29;;;;;;;4.68;2.85;;;;;;;;;;5079252;28;20016;-83
2023/05/10 08:43:09;;;;;;;4.57;2.80;;;;;;;;;;5075054;28;20130;-82
2023/05/10 08:45:39;;;;;;;3.30;2.75;;;;;;;;;;5069733;28;21184;-83
2023/05/10 08:48:09;;;;;;;6.82;3.88;;;;;;;;;;5080340;28;20054;-83
2023/05/10 08:50:39;;;;;;;4.85;2.78;;;;;;;;;;5072203;28;20503;-82
2023/05/10 08:53:07;;;;;;;;;;;;;;;;;;5085489;28;20068;-81
2023/05/10 08:55:33;;;;;;;6.65;3.22;;;;;;;;;;5074698;28;19965;-83
2023/05/10 08:58:00;;;;;;;4.95;3.13;;;;;;;;;;5106072;28;20035;-84
2023/05/10 09:00:28;;;;;;;13.23;4.43;;;;;;;;;;5078978;28;20031;-84
2023/05/10 09:02:54;;;;;;;5.30;3.22;;;;;;;;;;5076060;28;20035;-82
2023/05/10 09:05:22;;;;;;;5.38;3.30;;;;;;;;;;5087227;28;20024;-85
2023/05/10 09:07:51;;;;;;;5.18;3.40;;;;;;;;;;5074281;28;20142;-83
2023/05/10 09:10:17;;;;;;;6.85;4.13;;;;;;;;;;5094494;28;20029;-83
2023/05/10 09:12:45;;;;;;;6.07;3.25;;;;;;;;;;5077061;28;20032;-83
2023/05/10 09:15:14;;;;;;;5.70;3.17;;;;;;;;;;5083335;28;20020;-83
2023/05/10 09:17:40;;;;;;;6.47;4.20;;;;;;;;;;5084211;28;20086;-84
2023/05/10 09:20:13;;;;;;;6.55;3.88;;;;;;;;;;5084791;28;20035;-81
2023/05/10 09:22:41;;;;;;;6.20;4.18;;;;;;;;;;5080336;28;20028;-85
2023/05/10 09:25:43;;;;;;;4.97;3.65;;;;;;;;;;5073931;28;20023;-84
2023/05/10 09:28:12;;;;;;;5.88;3.70;;;;;;;;;;5072976;28;20064;-83
2023/05/10 09:30:38;;;;;;;8.73;3.65;;;;;;;;;;5077685;28;20426;-81
2023/05/10 09:36:26;;;;;;;6.38;3.83;;;;;;;;;;5073913;28;20080;-83
2023/05/10 09:41:45;;;;;;;7.38;4.57;;;;;;;;;;5075181;28;20040;-85
2023/05/10 09:44:17;;;;;;;6.68;3.90;;;;;;;;;;5077250;28;20039;-83
2023/05/10 09:46:55;;;;;;;5.75;4.00;;;;;;;;;;5074805;28;20039;-84
2023/05/10 09:52:50;;;;;;;6.03;4.47;;;;;;;;;;5082761;28;20036;-82
2023/05/10 09:55:50;;;;;;;5.03;3.25;;;;;;;;;;5050469;28;20040;-85
2023/05/10 10:01:14;;;;;;;4.70;3.60;;;;;;;;;;5078191;28;19936;-84
2023/05/10 10:04:33;;;;;;;;;;;;;;;;;;;;;
2023/05/10 10:07:50;;;;;;;;;;;;;;;;;;;;;
2023/05/10 10:10:21;;;;;;;6.50;3.83;;;;;;;;;;5078110;28;20030;-84
2023/05/10 10:12:50;;;;;;;7.43;4.65;;;;;;;;;;5087210;28;20119;-82
2023/05/10 10:15:24;;;;;;;7.73;5.10;;;;;;;;;;5077025;28;20028;-83
2023/05/10 10:18:03;;;;;;;5.20;3.55;;;;;;;;;;5074153;28;20032;-84
2023/05/10 10:20:37;;;;;;;6.97;4.85;;;;;;;;;;5071937;28;20032;-83
2023/05/10 10:23:10;;;;;;;8.07;4.15;;;;;;;;;;5094014;28;20535;-83
2023/05/10 10:25:39;;;;;;;7.22;4.55;;;;;;;;;;5069624;28;20048;-82
2023/05/10 10:28:36;;;;;;;7.13;4.78;;;;;;;;;;5072196;28;20056;-84
2023/05/10 10:31:32;;;;;;;4.45;3.15;;;;;;;;;;5036558;28;20749;-82
2023/05/10 10:34:08;;;;;;;6.15;3.45;;;;;;;;;;5053713;28;20066;-86
2023/05/10 10:36:46;;;;;;;5.20;3.92;;;;;;;;;;5078969;28;20073;-81
2023/05/10 10:39:12;;;;;;;7.38;3.53;;;;;;;;;;5076597;28;20036;-81
2023/05/10 10:41:44;;;;;;;6.32;3.83;;;;;;;;;;5089120;28;20047;-84
2023/05/10 10:44:27;;;;;;;5.80;3.88;;;;;;;;;;5062237;28;20032;-82
2023/05/10 10:47:02;;;;;;;6.72;4.38;;;;;;;;;;5078749;28;20039;-84
2023/05/10 10:49:32;;;;;;;5.43;3.58;;;;;;;;;;5073518;28;20035;-83
2023/05/10 10:52:22;;;;;;;8.20;4.68;;;;;;;;;;5066223;28;20507;-83
2023/05/10 10:55:23;;;;;;;5.03;3.63;;;;;;;;;;5078777;28;20430;-82
2023/05/10 10:58:03;;;;;;;5.32;3.58;;;;;;;;;;5080842;28;20038;-83
2023/05/10 11:00:37;;;;;;;5.25;3.30;;;;;;;;;;5072277;28;20025;-80
2023/05/10 11:03:18;;;;;;;5.40;3.83;;;;;;;;;;5076216;28;20032;-83
2023/05/10 11:05:45;;;;;;;8.90;5.00;;;;;;;;;;5079042;28;20040;-82
2023/05/10 11:08:15;;;;;;;6.53;3.70;;;;;;;;;;5070979;28;20501;-82
2023/05/10 11:11:15;;;;;;;6.65;3.85;;;;;;;;;;5106993;28;20024;-83
2023/05/10 11:13:47;;;;;;;5.20;3.50;;;;;;;;;;5039471;28;20038;-86
2023/05/10 11:16:54;;;;;;;;;;;;;;;;;;;;;
2023/05/10 11:20:09;;;;;;;6.28;4.00;;;;;;;;;;5078266;28;20034;-85
2023/05/10 11:23:15;;;;;;;7.03;4.28;;;;;;;;;;5043183;28;20040;-83
2023/05/10 11:29:50;;;;;;;4.57;3.55;;;;;;;;;;5014588;28;20503;-85
2023/05/10 11:32:51;;;;;;;5.60;3.63;;;;;;;;;;4973159;28;20042;-84
2023/05/10 11:35:29;;;;;;;4.45;3.38;;;;;;;;;;5076563;28;20046;-82
2023/05/10 11:37:55;;;;;;;5.10;4.00;;;;;;;;;;5080416;28;20036;-85
2023/05/10 11:40:26;;;;;;;5.07;3.35;;;;;;;;;;5079880;28;20043;-83
2023/05/10 11:42:56;;;;;;;7.13;3.97;;;;;;;;;;5062249;28;20407;-84
2023/05/10 11:45:23;;;;;;;;;;;;;;;;;;5075721;28;20028;-82
2023/05/10 11:47:52;;;;;;;5.63;3.15;;;;;;;;;;5079695;28;19919;-83
2023/05/10 11:50:18;;;;;;;5.25;3.30;;;;;;;;;;5059041;28;20041;-84
2023/05/10 11:52:43;;;;;;;6.40;4.05;;;;;;;;;;5065394;28;20128;-83
2023/05/10 11:55:15;;;;;;;4.80;3.35;;;;;;;;;;5070345;28;20519;-83
2023/05/10 11:57:42;;;;;;;5.85;4.10;;;;;;;;;;5079132;28;20065;-83
2023/05/10 12:00:08;;;;;;;6.78;3.67;;;;;;;;;;5109605;27;20024;-83
2023/05/10 12:02:36;;;;;;;7.47;3.63;;;;;;;;;;5087248;28;20034;-85
2023/05/10 12:05:03;;;;;;;5.70;3.53;;;;;;;;;;5118640;27;20468;-83
2023/05/10 12:07:28;;;;;;;6.78;4.68;;;;;;;;;;5081547;28;20028;-82
2023/05/10 12:10:08;;;;;;;6.70;4.20;;;;;;;;;;5073635;28;20021;-83
2023/05/10 12:12:44;;;;;;;6.90;4.70;;;;;;;;;;5067437;28;20031;-84
2023/05/10 12:15:19;;;;;;;5.88;4.00;;;;;;;;;;5064187;28;20480;-83
2023/05/10 12:17:45;;;;;;;7.60;3.65;;;;;;;;;;5073623;28;20024;-82
2023/05/10 12:20:16;;;;;;;6.05;4.43;;;;;;;;;;5081825;28;20048;-82
2023/05/10 12:22:53;;;;;;;6.72;3.75;;;;;;;;;;5079511;28;20112;-81
2023/05/10 12:25:21;;;;;;;5.88;4.05;;;;;;;;;;5076223;28;20067;-83
2023/05/10 12:27:57;;;;;;;6.95;4.13;;;;;;;;;;5079874;28;20039;-82
2023/05/10 12:30:24;;;;;;;5.63;3.83;;;;;;;;;;5082966;28;20016;-82
2023/05/10 12:32:50;;;;;;;7.15;4.22;;;;;;;;;;5076753;28;20020;-84
2023/05/10 12:35:16;;;;;;;4.88;3.53;;;;;;;;;;5110543;27;20448;-82
2023/05/10 12:37:45;;;;;;;6.88;4.80;;;;;;;;;;5082227;28;20391;-85
2023/05/10 12:40:11;;;;;;;7.53;3.97;;;;;;;;;;5083166;28;20051;-81
2023/05/10 12:42:38;;;;;;;7.18;4.72;;;;;;;;;;5077049;28;20415;-84
2023/05/10 12:45:05;;;;;;;6.53;4.07;;;;;;;;;;5081043;28;20464;-83
2023/05/10 12:47:31;;;;;;;7.85;3.63;;;;;;;;;;5078838;28;20051;-85
2023/05/10 12:49:56;;;;;;;7.78;4.50;;;;;;;;;;5088267;28;20024;-84
2023/05/10 12:52:22;;;;;;;6.00;3.67;;;;;;;;;;5080157;28;20028;-86
2023/05/10 12:54:48;;;;;;;7.18;4.25;;;;;;;;;;5075774;28;20403;-88
2023/05/10 12:57:14;;;;;;;9.30;3.97;;;;;;;;;;5078561;28;20091;-86
2023/05/10 12:59:39;;;;;;;8.07;4.35;;;;;;;;;;5076244;28;20035;-85
2023/05/10 13:02:06;;;;;;;5.93;3.97;;;;;;;;;;5071531;28;20020;-84
2023/05/10 13:04:31;;;;;;;11.48;4.18;;;;;;;;;;5081741;28;20024;-83
2023/05/10 13:06:58;;;;;;;6.32;4.13;;;;;;;;;;5080163;28;20115;-80
2023/05/10 13:09:25;;;;;;;7.15;4.53;;;;;;;;;;5084139;28;20020;-81
2023/05/10 13:11:51;;;;;;;8.88;5.45;;;;;;;;;;5080871;28;20047;-85
2023/05/10 13:14:16;;;;;;;6.32;3.53;;;;;;;;;;5085878;28;20024;-79
2023/05/10 13:16:41;;;;;;;5.50;3.80;;;;;;;;;;5076768;28;20518;-83
2023/05/10 13:19:07;;;;;;;5.85;3.67;;;;;;;;;;5081183;28;20024;-83
2023/05/10 13:21:32;;;;;;;7.75;4.60;;;;;;;;;;5081599;28;20027;-82
2023/05/10 13:23:57;;;;;;;5.90;4.00;;;;;;;;;;5080720;28;20025;-83
2023/05/10 13:26:23;;;;;;;6.70;3.85;;;;;;;;;;5078576;28;20023;-82
2023/05/10 13:28:49;;;;;;;8.10;4.20;;;;;;;;;;5082481;28;20058;-84
2023/05/10 13:31:14;;;;;;;9.10;4.28;;;;;;;;;;5073888;28;20036;-81
2023/05/10 13:33:41;;;;;;;5.97;3.60;;;;;;;;;;5072959;28;20067;-82
2023/05/10 13:36:07;;;;;;;6.93;4.22;;;;;;;;;;5075267;28;20044;-81
2023/05/10 13:38:32;;;;;;;6.07;3.45;;;;;;;;;;5076653;28;20060;-82
2023/05/10 13:40:57;;;;;;;5.32;3.60;;;;;;;;;;5086929;28;20067;-82
2023/05/10 13:43:23;;;;;;;8.02;4.38;;;;;;;;;;5084174;28;20028;-83
2023/05/10 13:45:49;;;;;;;8.00;4.75;;;;;;;;;;5076021;28;20056;-82
2023/05/10 13:48:14;;;;;;;6.43;3.88;;;;;;;;;;5081096;28;20036;-82
2023/05/10 13:50:40;;;;;;;6.93;4.13;;;;;;;;;;5081491;28;20038;-80
2023/05/10 13:53:05;;;;;;;7.72;4.18;;;;;;;;;;5083520;28;20020;-83
2023/05/10 13:58:52;;;;;;;7.20;4.32;;;;;;;;;;5077110;28;20062;-81
2023/05/10 14:01:18;;;;;;;5.15;3.22;;;;;;;;;;5113098;27;20033;-84
2023/05/10 14:03:43;;;;;;;4.97;3.22;;;;;;;;;;5075887;28;20025;-85
2023/05/10 14:06:09;;;;;;;4.72;3.42;;;;;;;;;;5072185;28;20056;-82
2023/05/10 14:08:35;;;;;;;5.60;3.45;;;;;;;;;;5077175;28;20103;-81
2023/05/10 14:11:01;;;;;;;5.13;3.20;;;;;;;;;;5079920;28;20047;-82
2023/05/10 14:13:27;;;;;;;9.07;3.70;;;;;;;;;;5082574;28;20452;-84
2023/05/10 14:15:53;;;;;;;8.45;4.43;;;;;;;;;;5082247;28;20028;-82
2023/05/10 14:18:19;;;;;;;4.20;3.13;;;;;;;;;;5080762;28;20526;-82
2023/05/10 14:20:44;;;;;;;5.47;3.53;;;;;;;;;;5078852;28;20109;-82
2023/05/10 14:23:10;;;;;;;6.40;3.65;;;;;;;;;;5082873;28;20024;-83
2023/05/10 14:25:35;;;;;;;8.45;4.55;;;;;;;;;;5070274;28;20035;-83
2023/05/10 14:28:01;;;;;;;7.88;4.50;;;;;;;;;;5080267;28;20078;-82
2023/05/10 14:30:26;;;;;;;5.88;3.85;;;;;;;;;;5079745;28;20027;-82
2023/05/10 14:32:53;;;;;;;7.28;3.80;;;;;;;;;;5078682;28;20039;-86
2023/05/10 14:35:19;;;;;;;8.55;4.00;;;;;;;;;;5074543;28;20063;-85
2023/05/10 14:37:44;;;;;;;6.53;3.95;;;;;;;;;;5080892;28;20067;-86
2023/05/10 14:40:10;;;;;;;7.47;4.85;;;;;;;;;;5077473;28;20071;-85
2023/05/10 14:42:36;;;;;;;8.23;3.92;;;;;;;;;;5080124;28;20857;-81
2023/05/10 14:45:01;;;;;;;5.88;3.95;;;;;;;;;;5085428;28;20488;-81
2023/05/10 14:47:27;;;;;;;6.65;4.15;;;;;;;;;;5069429;28;20509;-83
2023/05/10 14:49:52;;;;;;;6.03;3.85;;;;;;;;;;5078574;28;20464;-83
2023/05/10 14:55:39;;;;;;;6.40;4.40;;;;;;;;;;5076117;28;20129;-82
2023/05/10 14:58:04;;;;;;;6.95;4.57;;;;;;;;;;5077315;28;20048;-82
2023/05/10 15:00:31;;;;;;;8.02;4.82;;;;;;;;;;5071731;28;20040;-83
2023/05/10 15:02:57;;;;;;;7.32;4.07;;;;;;;;;;5081111;28;20032;-82
2023/05/10 15:05:22;;;;;;;7.60;4.65;;;;;;;;;;5077169;28;20420;-84
2023/05/10 15:07:48;;;;;;;6.90;3.58;;;;;;;;;;5079181;28;20116;-81
2023/05/10 15:10:14;;;;;;;6.07;3.90;;;;;;;;;;5083556;28;20032;-83
2023/05/10 15:12:40;;;;;;;6.25;3.90;;;;;;;;;;5080529;28;20489;-82
2023/05/10 15:15:06;;;;;;;4.57;3.20;;;;;;;;;;5081140;28;20029;-83
2023/05/10 15:17:32;;;;;;;6.13;3.78;;;;;;;;;;5085062;28;20392;-82
2023/05/10 15:19:57;;;;;;;3.65;2.35;;;;;;;;;;5078964;28;20027;-84
2023/05/10 15:22:22;;;;;;;6.15;3.88;;;;;;;;;;5079928;28;20043;-85
2023/05/10 15:24:48;;;;;;;6.43;3.92;;;;;;;;;;5076705;28;20460;-83
2023/05/10 15:27:13;;;;;;;6.10;3.80;;;;;;;;;;5079424;28;20364;-84
2023/05/10 15:29:39;;;;;;;8.00;3.88;;;;;;;;;;5075917;28;20055;-82
2023/05/10 15:32:04;;;;;;;4.80;3.35;;;;;;;;;;5086645;28;20111;-83